aviador You're here:

KM25 Decoded Metar

in
Report Time2017-05-23 20:55:00
UTC Time2017-05-23 20:35:54
Flight Rules vfr VFR
Wind290° at 08 kt
W.Rank290° ranks 32
Current wind is above 290° avg. (7.0)
Visibility9999 m
Phenomena:N/A
Clouds:Broken 060 Hf
Broken 120 Hf
Expected CloudBase > 5,200 ft AGL from Temp-Dew spread
Ceiling6,000 ft
Temp24°C
Dew Point11°C (44% RH)
AAT21.4°C
QNH1006 hPa
Raw Report
KM25 232055Z AUTO 29008KT 10SM BKN060 BKN120 24/11 A2971 RMK AO2
PWINO=

Extra information for KM25:More info

Social comments